Time;durP1;ratioP1;P1;durP2;ratioP2;P2;SDS_P1;SDS_P2;PMS_P1;PMS_P2;Temp;Humidity;BMP_temperature;BMP_pressure;BME280_temperature;BME280_humidity;BME280_pressure;Samples;Min_cycle;Max_cycle;Signal;HPM_P1;HPM_P2
2022/04/25 03:50:59;;;;;;;6.53;3.40;;;;;;;10.65;83.10;99341.12;6483373;26;20107;-87
2022/04/25 03:54:11;;;;;;;5.40;3.20;;;;;;;10.62;83.68;99343.41;6617154;26;34162;-87
2022/04/25 03:57:20;;;;;;;9.60;3.35;;;;;;;10.65;83.49;99345.69;6635156;26;33053;-88
2022/04/25 04:00:30;;;;;;;6.65;3.05;;;;;;;10.53;85.74;99339.22;6614957;26;32175;-88
2022/04/25 04:03:37;;;;;;;5.45;3.60;;;;;;;10.49;84.85;99341.50;6613614;26;33802;-88
2022/04/25 04:06:50;;;;;;;3.17;2.80;;;;;;;10.49;84.67;99340.69;6614422;26;33360;-88
2022/04/25 04:10:07;;;;;;;4.87;2.62;;;;;;;10.48;85.03;99347.94;6617320;26;32214;-88
2022/04/25 04:13:24;;;;;;;5.07;2.67;;;;;;;10.54;84.80;99343.59;6637121;26;35590;-88
2022/04/25 04:16:43;;;;;;;5.75;2.78;;;;;;;10.58;83.46;99344.84;6637256;26;33102;-88
2022/04/25 04:19:54;;;;;;;5.25;2.65;;;;;;;10.60;83.69;99348.16;6637309;26;34553;-92
2022/04/25 04:23:11;;;;;;;4.25;2.65;;;;;;;10.65;83.31;99351.91;6638081;26;33990;-88
2022/04/25 04:26:19;;;;;;;5.75;2.70;;;;;;;10.79;83.20;99351.91;6649745;26;34127;-87
2022/04/25 04:29:29;;;;;;;4.43;3.00;;;;;;;10.79;82.01;99347.38;6624948;26;32775;-87
2022/04/25 04:32:42;;;;;;;3.30;2.90;;;;;;;10.81;81.42;99348.00;6648070;26;33443;-87
2022/04/25 04:39:21;;;;;;;5.65;3.47;;;;;;;10.79;83.59;99351.91;6614133;26;33523;-87
2022/04/25 04:42:37;;;;;;;4.00;3.30;;;;;;;10.83;82.57;99351.31;6634869;26;34452;-87
2022/04/25 04:45:48;;;;;;;7.22;3.20;;;;;;;10.82;83.01;99346.97;6614489;26;32330;-87
2022/04/25 04:49:03;;;;;;;4.12;2.65;;;;;;;10.83;82.91;99353.19;6614652;26;32096;-88
2022/04/25 04:52:13;;;;;;;3.72;2.53;;;;;;;10.90;82.62;99346.75;6614772;26;31645;-88
2022/04/25 04:55:27;;;;;;;5.03;2.87;;;;;;;10.98;83.68;99350.31;6608244;27;33220;-87
2022/04/25 04:58:37;;;;;;;4.05;2.28;;;;;;;11.16;82.21;99357.78;6610484;27;33516;-87
2022/04/25 05:01:54;;;;;;;3.15;2.22;;;;;;;11.26;79.56;99350.94;6587686;27;33496;-92
2022/04/25 05:05:05;;;;;;;5.43;2.20;;;;;;;11.31;79.35;99353.81;6608536;27;34458;-87
2022/04/25 05:08:12;;;;;;;3.60;2.20;;;;;;;11.28;81.39;99356.09;6588662;27;32317;-87
2022/04/25 05:11:28;;;;;;;4.95;2.30;;;;;;;11.20;80.35;99359.81;6607932;27;34356;-87
2022/04/25 05:14:40;;;;;;;3.00;1.90;;;;;;;11.26;79.69;99369.81;6608269;27;33757;-87
2022/04/25 05:17:55;;;;;;;5.12;2.22;;;;;;;11.35;78.42;99373.12;6586388;27;33226;-87
2022/04/25 05:21:04;;;;;;;3.70;2.40;;;;;;;11.29;80.02;99369.37;6594456;27;31957;-87
2022/04/25 05:24:14;;;;;;;3.12;2.22;;;;;;;11.31;78.39;99375.37;6587419;27;32428;-87
2022/04/25 05:27:23;;;;;;;4.22;2.20;;;;;;;11.27;79.33;99382.22;6605834;27;34490;-87
2022/04/25 05:30:32;;;;;;;5.43;2.55;;;;;;;11.26;79.09;99380.59;6606422;27;33310;-87
2022/04/25 05:33:45;;;;;;;6.62;2.50;;;;;;;11.38;80.59;99386.19;6586785;27;33293;-87
2022/04/25 05:36:52;;;;;;;6.30;2.42;;;;;;;11.43;80.50;99383.66;6589897;27;32283;-86
2022/04/25 05:39:57;;;;;;;4.32;2.60;;;;;;;11.44;80.14;99388.03;6590344;27;32132;-86
2022/04/25 05:43:07;;;;;;;3.95;2.55;;;;;;;11.34;79.51;99388.44;6587993;27;35513;-86
2022/04/25 05:46:17;;;;;;;4.05;2.40;;;;;;;11.38;80.91;99394.25;6607320;27;33218;-88
2022/04/25 05:53:00;;;;;;;3.47;2.22;;;;;;;12.06;76.65;99393.16;6468026;27;3245144;-87
2022/04/25 05:56:04;;;;;;;6.72;2.30;;;;;;;12.28;74.53;99402.62;6607166;27;34068;-86
2022/04/25 05:59:11;;;;;;;2.33;2.00;;;;;;;12.46;74.57;99404.63;6606340;27;34208;-86
2022/04/25 06:02:20;;;;;;;2.97;1.95;;;;;;;12.62;72.63;99414.13;6607013;27;33241;-86
2022/04/25 06:05:31;;;;;;;3.92;2.58;;;;;;;12.74;72.41;99401.59;6589951;27;31799;-86
2022/04/25 06:08:36;;;;;;;4.28;2.30;;;;;;;12.90;73.17;99405.69;6591306;27;33063;-86
2022/04/25 06:11:41;;;;;;;6.00;2.28;;;;;;;13.02;71.13;99400.44;6608667;27;33144;-86
2022/04/25 06:14:45;;;;;;;4.35;2.28;;;;;;;13.02;70.87;99395.84;6592914;26;32629;-87
2022/04/25 06:17:52;;;;;;;5.25;2.17;;;;;;;13.17;70.77;99400.94;6599346;27;31414;-87
2022/04/25 06:20:59;;;;;;;4.90;2.35;;;;;;;13.33;70.32;99392.31;6594050;27;34217;-86
2022/04/25 06:24:08;;;;;;;4.85;1.87;;;;;;;13.58;70.88;99392.31;6610501;27;33964;-86
2022/04/25 06:27:13;;;;;;;4.25;1.90;;;;;;;13.82;69.26;99396.03;6586720;27;32369;-87
2022/04/25 06:30:23;;;;;;;4.57;2.25;;;;;;;13.73;67.78;99391.97;6584520;27;31584;-86
2022/04/25 06:33:27;;;;;;;5.25;2.15;;;;;;;13.71;68.92;99391.37;6586930;27;32222;-86
2022/04/25 06:36:32;;;;;;;5.10;2.10;;;;;;;13.90;67.66;99380.59;6612672;27;33563;-87
2022/04/25 06:39:37;;;;;;;3.50;2.17;;;;;;;13.90;67.59;99388.72;6621915;27;33953;-85
2022/04/25 06:42:42;;;;;;;3.58;2.10;;;;;;;13.96;67.76;99385.09;6621203;27;34306;-85
2022/04/25 06:45:46;;;;;;;4.30;2.30;;;;;;;13.96;67.15;99395.94;6587964;27;31951;-85
2022/04/25 06:52:13;;;;;;;3.75;1.67;;;;;;;14.24;68.45;99390.84;6614276;26;34642;-88
2022/04/25 06:55:19;;;;;;;6.05;1.90;;;;;;;14.32;66.06;99394.28;6607117;27;33515;-89
2022/04/25 06:58:26;;;;;;;5.18;1.75;;;;;;;14.34;67.03;99392.19;6589118;27;32792;-89
2022/04/25 07:01:32;;;;;;;5.28;1.65;;;;;;;14.38;65.09;99393.38;6612079;27;33851;-85
2022/04/25 07:04:38;;;;;;;2.00;1.40;;;;;;;14.42;65.53;99390.00;6616867;27;34045;-85
2022/04/25 07:07:44;;;;;;;6.50;1.98;;;;;;;14.29;64.91;99404.50;6614887;27;33459;-85
2022/04/25 07:10:49;;;;;;;2.67;1.67;;;;;;;14.24;64.98;99401.66;6612664;27;33805;-85
2022/04/25 07:13:55;;;;;;;4.85;1.95;;;;;;;14.42;64.36;99413.50;6617924;27;33593;-85
2022/04/25 07:17:01;;;;;;;3.12;1.50;;;;;;;14.53;66.17;99407.37;6589680;27;32072;-85
2022/04/25 07:20:07;;;;;;;4.80;1.70;;;;;;;14.86;65.69;99411.53;6590076;27;32124;-85
2022/04/25 07:30:01;;;;;;;2.80;1.50;;;;;;;15.19;64.50;99416.50;6613093;27;33977;-85
2022/04/25 07:33:07;;;;;;;1.30;1.15;;;;;;;15.44;59.78;99419.00;6609647;27;33558;-85
2022/04/25 07:36:18;;;;;;;1.60;1.50;;;;;;;15.52;60.65;99415.13;6588375;27;33496;-85
2022/04/25 07:39:27;;;;;;;2.00;1.48;;;;;;;15.45;61.01;99423.38;6585599;27;31814;-85
2022/04/25 07:42:34;;;;;;;2.03;1.27;;;;;;;15.60;61.28;99417.50;6605948;27;33952;-85
2022/04/25 07:45:40;;;;;;;1.83;1.50;;;;;;;15.75;58.64;99415.19;6586736;27;32097;-85
2022/04/25 07:48:45;;;;;;;2.58;1.20;;;;;;;16.16;58.09;99423.44;6606835;27;33670;-85
2022/04/25 07:51:50;;;;;;;2.75;1.40;;;;;;;16.61;55.92;99420.88;6606204;27;32965;-85
2022/04/25 07:54:59;;;;;;;3.25;1.42;;;;;;;16.81;56.86;99423.19;6606327;27;34907;-85
2022/04/25 07:58:04;;;;;;;1.70;1.58;;;;;;;17.11;55.38;99424.84;6584691;27;33158;-90
2022/04/25 08:01:08;;;;;;;1.58;1.23;;;;;;;17.52;53.57;99431.00;6586098;27;33582;-90
2022/04/25 08:04:14;;;;;;;2.92;1.40;;;;;;;17.73;52.14;99433.00;6607786;27;33736;-87
2022/04/25 08:07:19;;;;;;;1.67;1.58;;;;;;;17.45;52.60;99436.59;6609144;27;33225;-86
2022/04/25 08:10:30;;;;;;;1.77;1.12;;;;;;;17.25;54.37;99434.34;6588862;27;31878;-86
2022/04/25 08:20:22;;;;;;;2.78;1.35;;;;;;;17.21;55.26;99431.31;6606585;27;33453;-85
2022/04/25 08:23:28;;;;;;;2.35;1.48;;;;;;;17.24;52.78;99427.28;6586297;27;31962;-85
2022/04/25 08:26:36;;;;;;;3.00;2.00;;;;;;;17.65;53.89;99430.69;6586624;27;32246;-86
2022/04/25 08:29:43;;;;;;;2.33;1.23;;;;;;;17.88;52.81;99437.87;6606307;27;33706;-86
2022/04/25 08:32:55;;;;;;;3.33;1.08;;;;;;;17.97;50.76;99424.69;6603860;27;32141;-87
2022/04/25 08:36:02;;;;;;;1.60;1.30;;;;;;;18.11;49.17;99429.53;6586374;27;32740;-85
2022/04/25 08:39:10;;;;;;;1.80;1.70;;;;;;;17.99;49.55;99433.41;6607525;27;33680;-85
2022/04/25 08:42:19;;;;;;;1.30;1.20;;;;;;;18.16;51.05;99439.66;6587398;27;32056;-85
2022/04/25 08:45:46;;;;;;;2.03;1.55;;;;;;;17.85;50.31;99428.31;6604644;27;33209;-85
2022/04/25 08:48:55;;;;;;;3.20;1.10;;;;;;;17.80;50.65;99430.13;6585473;27;31806;-89
2022/04/25 08:52:07;;;;;;;6.22;1.55;;;;;;;18.15;48.29;99426.28;6586745;27;32261;-85
2022/04/25 08:55:17;;;;;;;1.30;1.20;;;;;;;18.37;47.98;99435.34;6586749;27;32081;-87
2022/04/25 08:58:25;;;;;;;2.45;1.20;;;;;;;18.89;47.24;99439.53;6585679;27;32823;-86
2022/04/25 09:01:28;;;;;;;1.40;1.17;;;;;;;19.43;44.11;99436.81;6606257;27;33624;-86
2022/04/25 09:04:34;;;;;;;1.58;0.90;;;;;;;19.12;45.59;99432.97;6626187;26;33306;-86
2022/04/25 09:07:44;;;;;;;1.55;0.90;;;;;;;18.35;46.60;99443.75;6587467;27;32075;-86
2022/04/25 09:12:09;;;;;;;2.13;1.20;;;;;;;17.80;48.32;99443.75;6605805;27;33686;-86
2022/04/25 09:14:22;;;;;;;1.67;1.50;;;;;;;17.56;48.53;99449.31;6608136;27;33517;-86
2022/04/25 09:17:32;;;;;;;4.00;0.88;;;;;;;17.66;49.39;99451.38;6615180;27;33470;-86
2022/04/25 09:20:44;;;;;;;1.15;0.85;;;;;;;17.93;50.75;99454.31;6624335;26;33946;-86
2022/04/25 09:23:58;;;;;;;1.90;0.77;;;;;;;18.22;47.90;99455.03;6588687;27;32201;-86
2022/04/25 09:27:08;;;;;;;1.00;0.90;;;;;;;18.42;47.56;99461.81;6606901;27;33435;-86
2022/04/25 09:30:21;;;;;;;0.80;0.80;;;;;;;18.46;48.04;99460.25;6606268;27;34108;-86
2022/04/25 09:33:33;;;;;;;1.50;1.00;;;;;;;18.86;45.69;99456.41;6585477;27;32289;-86
2022/04/25 09:36:47;;;;;;;1.45;0.85;;;;;;;19.13;45.88;99454.53;6587309;27;31967;-89
2022/04/25 09:40:02;;;;;;;1.17;1.08;;;;;;;19.21;46.35;99464.97;6587558;27;32749;-87
2022/04/25 09:43:13;;;;;;;0.90;0.90;;;;;;;18.79;48.03;99462.88;6611086;27;33796;-87
2022/04/25 09:46:28;;;;;;;0.90;0.80;;;;;;;18.74;46.85;99465.53;6611294;27;33532;-86
2022/04/25 09:49:38;;;;;;;;;;;;;;;18.86;44.38;99467.31;6589177;27;32086;-86
2022/04/25 09:52:56;;;;;;;1.83;0.82;;;;;;;18.63;44.97;99469.16;6607650;27;33470;-86
2022/04/25 09:56:21;;;;;;;1.27;0.55;;;;;;;19.02;43.93;99469.97;6588207;27;33357;-86
2022/04/25 09:59:43;;;;;;;3.28;1.00;;;;;;;19.12;44.08;99477.44;6590122;27;33768;-86
2022/04/25 10:02:49;;;;;;;0.98;0.40;;;;;;;18.62;44.98;99477.63;6588828;27;32805;-86
2022/04/25 10:05:55;;;;;;;0.60;0.50;;;;;;;18.85;44.50;99477.41;6608549;27;33654;-86
2022/04/25 10:09:04;;;;;;;1.67;0.52;;;;;;;19.04;42.79;99488.78;6608207;27;33537;-87
2022/04/25 10:12:11;;;;;;;0.60;0.60;;;;;;;18.79;43.53;99475.69;6588799;27;32154;-86
2022/04/25 10:15:18;;;;;;;0.68;0.52;;;;;;;18.77;44.42;99491.47;6589752;27;32749;-86
2022/04/25 10:18:27;;;;;;;1.45;0.90;;;;;;;18.68;43.56;99492.97;6595328;27;32410;-86
2022/04/25 10:21:36;;;;;;;1.98;0.60;;;;;;;18.66;44.70;99487.78;6602576;27;31927;-86
2022/04/25 10:24:44;;;;;;;0.65;0.30;;;;;;;19.16;43.28;99489.50;6588320;27;32343;-87
2022/04/25 10:27:50;;;;;;;0.40;0.40;;;;;;;19.62;41.73;99497.31;6607460;27;33562;-87
2022/04/25 10:31:02;;;;;;;0.40;0.40;;;;;;;19.60;41.15;99492.13;6587234;27;31981;-87
2022/04/25 10:34:14;;;;;;;0.50;0.50;;;;;;;19.60;41.46;99507.69;6607440;27;33271;-87
2022/04/25 10:37:36;;;;;;;1.65;0.90;;;;;;;19.39;41.91;99509.38;6606865;27;33271;-87
2022/04/25 10:44:33;;;;;;;1.30;0.80;;;;;;;19.64;41.61;99504.16;6599377;27;33123;-86
2022/04/25 10:47:57;;;;;;;2.72;0.85;;;;;;;20.55;42.09;99507.91;6586762;27;32193;-87
2022/04/25 10:51:13;;;;;;;0.60;0.60;;;;;;;20.49;41.09;99509.75;6588674;27;33366;-87
2022/04/25 10:54:23;;;;;;;0.57;0.57;;;;;;;19.72;43.37;99513.84;6589596;27;32016;-86
2022/04/25 10:57:29;;;;;;;2.15;0.95;;;;;;;19.32;42.55;99517.78;6609843;27;33457;-88
2022/04/25 11:00:41;;;;;;;2.90;0.60;;;;;;;19.10;44.23;99520.53;6588124;27;32450;-85
2022/04/25 11:04:05;;;;;;;2.45;1.50;;;;;;;19.03;42.19;99525.34;6589434;27;32918;-86
2022/04/25 11:07:24;;;;;;;0.65;0.60;;;;;;;19.81;40.44;99525.94;6606830;27;34028;-86
2022/04/25 11:10:45;;;;;;;0.85;0.50;;;;;;;19.87;39.93;99529.53;6608553;27;33563;-85
2022/04/25 11:14:01;;;;;;;2.35;0.80;;;;;;;19.17;43.25;99540.25;6611400;27;33737;-85
2022/04/25 11:17:08;;;;;;;1.37;0.70;;;;;;;18.89;42.94;99541.25;6588230;27;32244;-85
2022/04/25 11:20:11;;;;;;;0.57;0.57;;;;;;;18.87;42.00;99543.44;6588866;27;32078;-85
2022/04/25 11:23:28;;;;;;;1.45;0.70;;;;;;;19.88;42.42;99551.13;6618788;27;33497;-85
2022/04/25 11:26:54;;;;;;;0.50;0.47;;;;;;;22.09;37.12;99548.38;6605836;27;34293;-86
2022/04/25 11:30:16;;;;;;;1.10;0.77;;;;;;;22.98;35.61;99550.72;6588639;27;33982;-86
2022/04/25 11:33:21;;;;;;;1.27;0.70;;;;;;;22.87;34.93;99547.16;6587812;27;32478;-90
2022/04/25 11:36:29;;;;;;;1.08;0.52;;;;;;;21.58;37.57;99561.19;6587706;27;31965;-86
2022/04/25 11:39:51;;;;;;;0.73;0.50;;;;;;;20.60;39.66;99566.19;6606515;27;33234;-86
2022/04/25 11:42:56;;;;;;;0.93;0.93;;;;;;;19.93;40.42;99564.00;6588495;27;33220;-86
2022/04/25 11:45:59;;;;;;;2.60;0.55;;;;;;;19.43;41.96;99570.56;6586537;27;32274;-86
2022/04/25 11:49:06;;;;;;;2.05;0.70;;;;;;;19.39;42.00;99585.81;6588675;27;31807;-86
2022/04/25 11:52:17;;;;;;;1.20;0.60;;;;;;;20.28;39.86;99579.06;6584822;27;33100;-86
2022/04/25 11:55:33;;;;;;;0.90;0.75;;;;;;;20.33;39.79;99581.84;6590421;27;32362;-86
2022/04/25 11:58:38;;;;;;;1.20;0.70;;;;;;;19.87;42.13;99593.19;6602643;27;33546;-86
2022/04/25 12:01:47;;;;;;;1.30;0.60;;;;;;;19.12;43.98;99597.47;6589278;27;32223;-86
2022/04/25 12:04:52;;;;;;;5.75;1.42;;;;;;;18.64;44.20;99604.44;6606282;27;33096;-86
2022/04/25 12:18:28;;;;;;;1.62;1.10;;;;;;;22.42;39.49;99606.53;6584520;27;33040;-92
2022/04/25 12:21:40;;;;;;;1.70;0.90;;;;;;;22.56;37.42;99606.78;6604389;27;34796;-87
2022/04/25 12:24:45;;;;;;;1.37;0.50;;;;;;;21.18;40.25;99596.34;6584949;27;34091;-88
2022/04/25 12:28:08;;;;;;;0.70;0.70;;;;;;;20.30;41.36;99598.75;6585680;27;32023;-88
2022/04/25 12:31:15;;;;;;;1.45;0.70;;;;;;;19.39;42.93;99596.72;6586216;27;31954;-88
2022/04/25 12:34:23;;;;;;;1.42;1.00;;;;;;;19.12;43.99;99602.13;6586444;27;32006;-88
2022/04/25 12:37:28;;;;;;;0.70;0.70;;;;;;;18.59;44.63;99607.91;6604768;27;34934;-88
2022/04/25 12:40:33;;;;;;;0.70;0.70;;;;;;;19.20;43.20;99602.50;6586438;27;31838;-88
2022/04/25 12:43:46;;;;;;;1.42;1.33;;;;;;;19.63;42.50;99605.47;6585505;27;32363;-88
2022/04/25 12:46:59;;;;;;;3.42;1.98;;;;;;;19.69;42.39;99608.03;6585830;27;32080;-87
2022/04/25 12:50:04;;;;;;;2.42;0.95;;;;;;;22.19;38.15;99605.97;6587624;27;32107;-88
2022/04/25 12:53:11;;;;;;;0.70;0.70;;;;;;;24.10;33.21;99588.63;6586023;27;32640;-88
2022/04/25 12:56:23;;;;;;;4.37;0.75;;;;;;;23.90;33.10;99597.00;6606096;27;33026;-88
2022/04/25 12:59:30;;;;;;;2.40;0.90;;;;;;;23.66;32.87;99603.13;6588538;27;32789;-88
2022/04/25 13:02:37;;;;;;;1.20;0.70;;;;;;;24.20;31.03;99588.53;6613638;27;33970;-88
2022/04/25 13:05:47;;;;;;;1.65;0.60;;;;;;;23.00;33.73;99608.94;6584972;27;32369;-88
2022/04/25 13:08:55;;;;;;;0.70;0.70;;;;;;;22.56;33.46;99604.03;6587360;27;32014;-92
2022/04/25 13:12:23;;;;;;;0.82;0.60;;;;;;;22.61;34.13;99607.63;6607061;27;34201;-88
2022/04/25 13:15:29;;;;;;;;;;;;;;;25.15;30.23;99604.72;6588004;27;32268;-88
2022/04/25 13:18:36;;;;;;;1.77;0.75;;;;;;;26.73;27.98;99604.34;6606850;27;33035;-88
2022/04/25 13:21:45;;;;;;;0.75;0.50;;;;;;;29.59;24.41;99595.56;6585370;27;33593;-88
2022/04/25 13:24:49;;;;;;;1.02;0.70;;;;;;;30.79;21.82;99595.06;6606274;27;34232;-87
2022/04/25 13:27:58;;;;;;;1.75;0.60;;;;;;;32.10;20.92;99584.03;6607041;27;33922;-88
2022/04/25 13:31:05;;;;;;;0.57;0.50;;;;;;;32.03;20.10;99580.94;6586079;27;32056;-89
2022/04/25 13:34:13;;;;;;;2.40;0.60;;;;;;;33.15;18.80;99578.97;6585533;27;32971;-89
2022/04/25 13:37:18;;;;;;;0.30;0.30;;;;;;;33.31;18.38;99570.69;6592044;27;31522;-88
2022/04/25 13:40:26;;;;;;;;;;;;;;;33.50;17.84;99583.25;6614386;27;34580;-88
2022/04/25 13:43:34;;;;;;;4.93;0.75;;;;;;;33.22;18.94;99597.91;6592512;27;32514;-88
2022/04/25 13:46:42;;;;;;;1.02;0.50;;;;;;;33.45;17.89;99592.66;6609920;27;34049;-88
2022/04/25 13:49:49;;;;;;;2.80;0.52;;;;;;;33.56;17.85;99588.25;6605935;27;34347;-91
2022/04/25 13:52:57;;;;;;;0.85;0.45;;;;;;;33.94;17.87;99602.94;6610980;27;34533;-86
2022/04/25 13:56:03;;;;;;;1.02;0.43;;;;;;;34.39;17.36;99594.28;6614187;27;33235;-86
2022/04/25 13:59:09;;;;;;;1.93;0.40;;;;;;;33.62;18.20;99600.81;6623464;26;34738;-87
2022/04/25 14:05:45;;;;;;;3.17;0.77;;;;;;;33.83;18.94;99595.06;6601372;27;32945;-87
2022/04/25 14:08:52;;;;;;;1.75;0.60;;;;;;;30.40;20.97;99596.13;6590283;27;33348;-92
2022/04/25 14:12:05;;;;;;;0.52;0.50;;;;;;;28.52;23.46;99595.81;6589504;27;32050;-87
2022/04/25 14:15:20;;;;;;;0.80;0.60;;;;;;;25.91;26.23;99602.91;6608913;27;33409;-88
2022/04/25 14:18:30;;;;;;;1.35;0.65;;;;;;;26.11;29.02;99610.06;6606606;27;33532;-87
2022/04/25 14:21:37;;;;;;;3.90;0.77;;;;;;;26.37;26.34;99610.47;6609087;27;33370;-87
2022/04/25 14:24:46;;;;;;;3.20;0.75;;;;;;;25.33;28.22;99607.53;6607348;27;33446;-87
2022/04/25 14:28:02;;;;;;;3.05;0.90;;;;;;;25.53;27.55;99611.94;6588605;27;31909;-87
2022/04/25 14:31:11;;;;;;;1.90;0.60;;;;;;;24.72;28.51;99612.87;6588001;27;33128;-87
2022/04/25 14:34:18;;;;;;;1.02;0.60;;;;;;;25.07;28.29;99620.75;6608182;27;34708;-87
2022/04/25 14:37:34;;;;;;;2.95;1.00;;;;;;;24.95;28.97;99614.00;6606922;27;33537;-87
2022/04/25 14:40:44;;;;;;;2.97;1.02;;;;;;;24.27;29.70;99615.69;6607787;27;33633;-87
2022/04/25 14:43:58;;;;;;;0.88;0.80;;;;;;;25.41;28.33;99625.34;6608808;27;33233;-87
2022/04/25 14:47:10;;;;;;;2.47;1.10;;;;;;;25.16;27.76;99607.19;6589052;27;33011;-86
2022/04/25 14:57:32;;;;;;;4.30;0.90;;;;;;;24.22;29.92;99613.00;6587773;27;33716;-89
2022/04/25 15:00:45;;;;;;;1.02;1.02;;;;;;;23.54;30.39;99608.97;6587425;27;33794;-89
2022/04/25 15:03:57;;;;;;;0.95;0.95;;;;;;;22.00;33.15;99625.94;6586490;27;33549;-89
2022/04/25 15:07:06;;;;;;;2.12;0.90;;;;;;;21.37;35.43;99631.50;6588778;27;34240;-89
2022/04/25 15:10:16;;;;;;;2.40;1.10;;;;;;;20.79;36.82;99626.75;6587736;27;33552;-88
2022/04/25 15:13:23;;;;;;;2.15;1.00;;;;;;;20.04;37.12;99623.12;6586443;27;32029;-88
2022/04/25 15:16:34;;;;;;;1.10;0.98;;;;;;;19.82;37.80;99631.38;6587716;27;34368;-89
2022/04/25 15:19:45;;;;;;;0.95;0.95;;;;;;;19.78;39.00;99632.16;6590406;27;32534;-88
2022/04/25 15:22:53;;;;;;;1.48;1.37;;;;;;;19.05;39.07;99643.25;6607677;27;33945;-88
2022/04/25 15:26:04;;;;;;;2.15;1.20;;;;;;;19.06;39.53;99646.78;6586906;27;32253;-88
2022/04/25 15:29:16;;;;;;;1.30;1.20;;;;;;;19.03;40.07;99643.47;6608240;27;33272;-88
2022/04/25 15:32:30;;;;;;;2.40;1.20;;;;;;;19.15;40.28;99656.19;6588672;27;32443;-92
2022/04/25 15:35:39;;;;;;;3.40;1.10;;;;;;;19.02;39.87;99652.75;6586658;27;33386;-88
2022/04/25 15:38:53;;;;;;;2.03;1.33;;;;;;;18.89;40.94;99663.19;6586753;27;32094;-89
2022/04/25 15:42:06;;;;;;;1.55;1.08;;;;;;;18.73;41.75;99662.09;6610363;27;34023;-89
2022/04/25 15:45:18;;;;;;;1.75;1.37;;;;;;;18.52;41.66;99669.12;6619027;26;33813;-88
2022/04/25 15:48:29;;;;;;;1.02;0.93;;;;;;;18.14;41.52;99670.66;6607278;27;33811;-88
2022/04/25 15:51:40;;;;;;;2.10;1.23;;;;;;;17.90;41.69;99670.75;6607085;27;35169;-88
2022/04/25 15:58:26;;;;;;;1.37;1.27;;;;;;;17.71;42.43;99671.16;6588964;27;34487;-88
